sensor_id;sensor_type;location;lat;lon;timestamp;P1;durP1;ratioP1;P2;durP2;ratioP2
68375;SDS011;55318;52.068;5.188;2023-11-19T00:02:43;7.2;;;3.0;;
68375;SDS011;55318;52.068;5.188;2023-11-19T00:04:19;6.4;;;3.1;;
68375;SDS011;55318;52.068;5.188;2023-11-19T00:05:55;8.4;;;2.9;;
68375;SDS011;55318;52.068;5.188;2023-11-19T00:09:08;9.5;;;3.4;;
68375;SDS011;55318;52.068;5.188;2023-11-19T00:10:44;9.5;;;3.4;;
68375;SDS011;55318;52.068;5.188;2023-11-19T00:12:20;9.5;;;2.9;;
68375;SDS011;55318;52.068;5.188;2023-11-19T00:13:56;8.1;;;3.4;;
68375;SDS011;55318;52.068;5.188;2023-11-19T00:17:08;10.7;;;3.7;;
68375;SDS011;55318;52.068;5.188;2023-11-19T00:18:44;9.1;;;3.1;;
68375;SDS011;55318;52.068;5.188;2023-11-19T00:20:20;9.31;;;3.1;;
68375;SDS011;55318;52.068;5.188;2023-11-19T00:23:33;8.31;;;2.9;;
68375;SDS011;55318;52.068;5.188;2023-11-19T00:25:09;7.7;;;2.4;;
68375;SDS011;55318;52.068;5.188;2023-11-19T00:26:46;9.5;;;3.0;;
68375;SDS011;55318;52.068;5.188;2023-11-19T00:29:59;10.5;;;2.21;;
68375;SDS011;55318;52.068;5.188;2023-11-19T00:31:36;9.1;;;2.31;;
68375;SDS011;55318;52.068;5.188;2023-11-19T00:33:12;10.5;;;2.9;;
68375;SDS011;55318;52.068;5.188;2023-11-19T00:34:48;13.0;;;3.3;;
68375;SDS011;55318;52.068;5.188;2023-11-19T00:38:00;10.3;;;2.7;;
68375;SDS011;55318;52.068;5.188;2023-11-19T00:39:37;19.91;;;5.0;;
68375;SDS011;55318;52.068;5.188;2023-11-19T00:41:13;19.7;;;3.6;;
68375;SDS011;55318;52.068;5.188;2023-11-19T00:44:27;9.81;;;2.9;;
68375;SDS011;55318;52.068;5.188;2023-11-19T00:46:06;15.5;;;3.4;;
68375;SDS011;55318;52.068;5.188;2023-11-19T00:47:43;10.5;;;2.5;;
68375;SDS011;55318;52.068;5.188;2023-11-19T00:50:55;10.4;;;3.2;;
68375;SDS011;55318;52.068;5.188;2023-11-19T00:52:31;15.9;;;3.8;;
68375;SDS011;55318;52.068;5.188;2023-11-19T00:54:07;15.4;;;4.0;;
68375;SDS011;55318;52.068;5.188;2023-11-19T00:55:44;20.3;;;4.41;;
68375;SDS011;55318;52.068;5.188;2023-11-19T00:58:57;13.3;;;3.3;;
68375;SDS011;55318;52.068;5.188;2023-11-19T01:00:33;10.1;;;3.8;;
68375;SDS011;55318;52.068;5.188;2023-11-19T01:02:09;16.2;;;4.1;;
68375;SDS011;55318;52.068;5.188;2023-11-19T01:05:21;11.4;;;3.5;;
68375;SDS011;55318;52.068;5.188;2023-11-19T01:06:57;15.3;;;3.8;;
68375;SDS011;55318;52.068;5.188;2023-11-19T01:08:33;11.2;;;2.5;;
68375;SDS011;55318;52.068;5.188;2023-11-19T01:11:45;12.2;;;2.8;;
68375;SDS011;55318;52.068;5.188;2023-11-19T01:13:22;17.8;;;4.2;;
68375;SDS011;55318;52.068;5.188;2023-11-19T01:14:58;16.9;;;4.41;;
68375;SDS011;55318;52.068;5.188;2023-11-19T01:18:10;20.7;;;4.91;;
68375;SDS011;55318;52.068;5.188;2023-11-19T01:19:47;17.61;;;4.61;;
68375;SDS011;55318;52.068;5.188;2023-11-19T01:21:23;27.5;;;3.9;;
68375;SDS011;55318;52.068;5.188;2023-11-19T01:23:00;17.8;;;4.3;;
68375;SDS011;55318;52.068;5.188;2023-11-19T01:26:12;14.5;;;4.1;;
68375;SDS011;55318;52.068;5.188;2023-11-19T01:27:49;20.11;;;4.8;;
68375;SDS011;55318;52.068;5.188;2023-11-19T01:29:25;20.0;;;4.5;;
68375;SDS011;55318;52.068;5.188;2023-11-19T01:32:37;18.7;;;3.9;;
68375;SDS011;55318;52.068;5.188;2023-11-19T01:34:13;14.6;;;3.9;;
68375;SDS011;55318;52.068;5.188;2023-11-19T01:35:49;14.6;;;4.0;;
68375;SDS011;55318;52.068;5.188;2023-11-19T01:39:02;15.4;;;3.7;;
68375;SDS011;55318;52.068;5.188;2023-11-19T01:40:38;15.2;;;4.5;;
68375;SDS011;55318;52.068;5.188;2023-11-19T01:42:14;18.5;;;4.7;;
68375;SDS011;55318;52.068;5.188;2023-11-19T01:45:28;17.91;;;4.2;;
68375;SDS011;55318;52.068;5.188;2023-11-19T01:47:06;16.4;;;3.9;;
68375;SDS011;55318;52.068;5.188;2023-11-19T01:48:45;20.3;;;5.11;;
68375;SDS011;55318;52.068;5.188;2023-11-19T01:50:22;29.6;;;6.6;;
68375;SDS011;55318;52.068;5.188;2023-11-19T01:53:36;21.3;;;4.2;;
68375;SDS011;55318;52.068;5.188;2023-11-19T01:55:15;21.2;;;4.7;;
68375;SDS011;55318;52.068;5.188;2023-11-19T01:56:52;17.41;;;5.0;;
68375;SDS011;55318;52.068;5.188;2023-11-19T01:58:30;22.6;;;5.5;;
68375;SDS011;55318;52.068;5.188;2023-11-19T02:01:46;15.7;;;5.3;;
68375;SDS011;55318;52.068;5.188;2023-11-19T02:03:22;22.8;;;5.11;;
68375;SDS011;55318;52.068;5.188;2023-11-19T02:05:00;24.8;;;4.8;;
68375;SDS011;55318;52.068;5.188;2023-11-19T02:08:15;24.8;;;4.8;;
68375;SDS011;55318;52.068;5.188;2023-11-19T02:09:51;19.2;;;4.0;;
68375;SDS011;55318;52.068;5.188;2023-11-19T02:11:28;21.8;;;4.7;;
68375;SDS011;55318;52.068;5.188;2023-11-19T02:14:41;18.41;;;4.91;;
68375;SDS011;55318;52.068;5.188;2023-11-19T02:16:17;20.2;;;5.0;;
68375;SDS011;55318;52.068;5.188;2023-11-19T02:17:53;15.1;;;3.9;;
68375;SDS011;55318;52.068;5.188;2023-11-19T02:19:29;23.9;;;5.9;;
68375;SDS011;55318;52.068;5.188;2023-11-19T02:22:41;15.0;;;4.61;;
68375;SDS011;55318;52.068;5.188;2023-11-19T02:24:19;17.41;;;5.11;;
68375;SDS011;55318;52.068;5.188;2023-11-19T02:26:01;23.2;;;5.5;;
68375;SDS011;55318;52.068;5.188;2023-11-19T02:29:28;21.1;;;4.91;;
68375;SDS011;55318;52.068;5.188;2023-11-19T02:31:04;21.1;;;4.91;;
68375;SDS011;55318;52.068;5.188;2023-11-19T02:32:41;21.2;;;6.3;;
68375;SDS011;55318;52.068;5.188;2023-11-19T02:34:18;25.6;;;4.41;;
68375;SDS011;55318;52.068;5.188;2023-11-19T02:37:30;23.2;;;5.6;;
68375;SDS011;55318;52.068;5.188;2023-11-19T02:39:07;26.2;;;5.4;;
68375;SDS011;55318;52.068;5.188;2023-11-19T02:40:44;23.4;;;5.6;;
68375;SDS011;55318;52.068;5.188;2023-11-19T02:43:57;20.7;;;6.0;;
68375;SDS011;55318;52.068;5.188;2023-11-19T02:45:33;35.5;;;7.3;;
68375;SDS011;55318;52.068;5.188;2023-11-19T02:47:10;22.0;;;6.0;;
68375;SDS011;55318;52.068;5.188;2023-11-19T02:48:46;20.41;;;5.11;;
68375;SDS011;55318;52.068;5.188;2023-11-19T02:52:01;27.8;;;6.2;;
68375;SDS011;55318;52.068;5.188;2023-11-19T02:53:37;30.3;;;7.2;;
68375;SDS011;55318;52.068;5.188;2023-11-19T02:55:14;24.1;;;6.6;;
68375;SDS011;55318;52.068;5.188;2023-11-19T02:58:27;17.7;;;5.7;;
68375;SDS011;55318;52.068;5.188;2023-11-19T03:00:05;24.5;;;5.4;;
68375;SDS011;55318;52.068;5.188;2023-11-19T03:01:42;25.1;;;5.7;;
68375;SDS011;55318;52.068;5.188;2023-11-19T03:04:55;19.8;;;6.1;;
68375;SDS011;55318;52.068;5.188;2023-11-19T03:06:31;22.8;;;6.4;;
68375;SDS011;55318;52.068;5.188;2023-11-19T03:08:07;22.6;;;5.7;;
68375;SDS011;55318;52.068;5.188;2023-11-19T03:09:44;28.9;;;6.4;;
68375;SDS011;55318;52.068;5.188;2023-11-19T03:12:56;22.3;;;5.8;;
68375;SDS011;55318;52.068;5.188;2023-11-19T03:14:33;22.1;;;5.3;;
68375;SDS011;55318;52.068;5.188;2023-11-19T03:16:09;16.9;;;6.0;;
68375;SDS011;55318;52.068;5.188;2023-11-19T03:19:21;29.3;;;7.3;;
68375;SDS011;55318;52.068;5.188;2023-11-19T03:20:58;24.7;;;6.4;;
68375;SDS011;55318;52.068;5.188;2023-11-19T03:22:34;26.2;;;5.8;;
68375;SDS011;55318;52.068;5.188;2023-11-19T03:25:49;21.7;;;5.0;;
68375;SDS011;55318;52.068;5.188;2023-11-19T03:27:26;22.9;;;5.4;;
68375;SDS011;55318;52.068;5.188;2023-11-19T03:29:02;23.7;;;6.9;;
68375;SDS011;55318;52.068;5.188;2023-11-19T03:30:38;16.9;;;4.8;;
68375;SDS011;55318;52.068;5.188;2023-11-19T03:33:50;26.8;;;6.3;;
68375;SDS011;55318;52.068;5.188;2023-11-19T03:35:26;26.2;;;6.0;;
68375;SDS011;55318;52.068;5.188;2023-11-19T03:37:02;18.61;;;5.5;;
68375;SDS011;55318;52.068;5.188;2023-11-19T03:40:16;19.11;;;6.2;;
68375;SDS011;55318;52.068;5.188;2023-11-19T03:41:52;17.3;;;5.11;;
68375;SDS011;55318;52.068;5.188;2023-11-19T03:43:28;23.8;;;6.2;;
68375;SDS011;55318;52.068;5.188;2023-11-19T03:46:44;23.1;;;5.7;;
68375;SDS011;55318;52.068;5.188;2023-11-19T03:48:20;27.9;;;6.6;;
68375;SDS011;55318;52.068;5.188;2023-11-19T03:49:56;21.9;;;5.3;;
68375;SDS011;55318;52.068;5.188;2023-11-19T03:51:32;28.3;;;6.6;;
68375;SDS011;55318;52.068;5.188;2023-11-19T03:54:44;19.61;;;6.2;;
68375;SDS011;55318;52.068;5.188;2023-11-19T03:56:21;24.8;;;6.5;;
68375;SDS011;55318;52.068;5.188;2023-11-19T03:57:57;27.8;;;7.0;;
68375;SDS011;55318;52.068;5.188;2023-11-19T04:01:11;24.8;;;6.1;;
68375;SDS011;55318;52.068;5.188;2023-11-19T04:02:48;24.1;;;5.7;;
68375;SDS011;55318;52.068;5.188;2023-11-19T04:04:24;32.4;;;6.5;;
68375;SDS011;55318;52.068;5.188;2023-11-19T04:07:36;27.7;;;6.6;;
68375;SDS011;55318;52.068;5.188;2023-11-19T04:09:15;28.6;;;6.2;;
68375;SDS011;55318;52.068;5.188;2023-11-19T04:10:51;25.3;;;6.9;;
68375;SDS011;55318;52.068;5.188;2023-11-19T04:12:28;16.3;;;5.4;;
68375;SDS011;55318;52.068;5.188;2023-11-19T04:15:40;25.5;;;6.2;;
68375;SDS011;55318;52.068;5.188;2023-11-19T04:17:17;21.8;;;5.9;;
68375;SDS011;55318;52.068;5.188;2023-11-19T04:18:53;29.7;;;7.1;;
68375;SDS011;55318;52.068;5.188;2023-11-19T04:22:06;29.5;;;7.3;;
68375;SDS011;55318;52.068;5.188;2023-11-19T04:23:42;28.0;;;6.6;;
68375;SDS011;55318;52.068;5.188;2023-11-19T04:25:18;28.0;;;6.5;;
68375;SDS011;55318;52.068;5.188;2023-11-19T04:28:30;29.3;;;6.7;;
68375;SDS011;55318;52.068;5.188;2023-11-19T04:30:07;29.6;;;7.4;;
68375;SDS011;55318;52.068;5.188;2023-11-19T04:31:43;29.1;;;6.4;;
68375;SDS011;55318;52.068;5.188;2023-11-19T04:33:20;26.3;;;5.6;;
68375;SDS011;55318;52.068;5.188;2023-11-19T04:36:32;21.7;;;5.5;;
68375;SDS011;55318;52.068;5.188;2023-11-19T04:38:08;28.6;;;6.5;;
68375;SDS011;55318;52.068;5.188;2023-11-19T04:39:44;27.0;;;7.4;;
68375;SDS011;55318;52.068;5.188;2023-11-19T04:42:56;33.9;;;7.3;;
68375;SDS011;55318;52.068;5.188;2023-11-19T04:44:32;25.7;;;6.0;;
68375;SDS011;55318;52.068;5.188;2023-11-19T04:46:09;24.6;;;5.9;;
68375;SDS011;55318;52.068;5.188;2023-11-19T04:49:22;19.91;;;5.3;;
68375;SDS011;55318;52.068;5.188;2023-11-19T04:50:58;24.6;;;6.4;;
68375;SDS011;55318;52.068;5.188;2023-11-19T04:52:34;17.91;;;5.4;;
68375;SDS011;55318;52.068;5.188;2023-11-19T04:54:13;25.5;;;7.4;;
68375;SDS011;55318;52.068;5.188;2023-11-19T04:57:26;20.5;;;5.5;;
68375;SDS011;55318;52.068;5.188;2023-11-19T04:59:02;25.6;;;7.7;;
68375;SDS011;55318;52.068;5.188;2023-11-19T05:00:39;19.91;;;5.2;;
68375;SDS011;55318;52.068;5.188;2023-11-19T05:03:51;30.4;;;6.6;;
68375;SDS011;55318;52.068;5.188;2023-11-19T05:05:28;19.5;;;5.7;;
68375;SDS011;55318;52.068;5.188;2023-11-19T05:07:04;22.9;;;6.1;;
68375;SDS011;55318;52.068;5.188;2023-11-19T05:10:16;21.3;;;5.8;;
68375;SDS011;55318;52.068;5.188;2023-11-19T05:11:52;25.0;;;6.4;;
68375;SDS011;55318;52.068;5.188;2023-11-19T05:13:28;28.3;;;7.5;;
68375;SDS011;55318;52.068;5.188;2023-11-19T05:16:41;25.2;;;5.4;;
68375;SDS011;55318;52.068;5.188;2023-11-19T05:18:17;21.2;;;5.3;;
68375;SDS011;55318;52.068;5.188;2023-11-19T05:19:54;20.9;;;5.7;;
68375;SDS011;55318;52.068;5.188;2023-11-19T05:21:30;36.4;;;6.5;;
68375;SDS011;55318;52.068;5.188;2023-11-19T05:24:42;22.0;;;5.9;;
68375;SDS011;55318;52.068;5.188;2023-11-19T05:26:18;23.2;;;5.3;;
68375;SDS011;55318;52.068;5.188;2023-11-19T05:27:55;27.8;;;7.0;;
68375;SDS011;55318;52.068;5.188;2023-11-19T05:31:07;26.0;;;7.1;;
68375;SDS011;55318;52.068;5.188;2023-11-19T05:32:43;27.8;;;7.1;;
68375;SDS011;55318;52.068;5.188;2023-11-19T05:34:19;26.9;;;7.2;;
68375;SDS011;55318;52.068;5.188;2023-11-19T05:37:32;22.0;;;5.4;;
68375;SDS011;55318;52.068;5.188;2023-11-19T05:39:08;28.6;;;6.9;;
68375;SDS011;55318;52.068;5.188;2023-11-19T05:40:44;32.1;;;7.0;;
68375;SDS011;55318;52.068;5.188;2023-11-19T05:42:20;30.4;;;6.5;;
68375;SDS011;55318;52.068;5.188;2023-11-19T05:45:32;27.4;;;6.8;;
68375;SDS011;55318;52.068;5.188;2023-11-19T05:47:08;21.1;;;6.4;;
68375;SDS011;55318;52.068;5.188;2023-11-19T05:48:44;23.4;;;6.9;;
68375;SDS011;55318;52.068;5.188;2023-11-19T05:51:56;27.7;;;6.4;;
68375;SDS011;55318;52.068;5.188;2023-11-19T05:53:33;35.0;;;7.4;;
68375;SDS011;55318;52.068;5.188;2023-11-19T05:55:09;27.6;;;6.7;;
68375;SDS011;55318;52.068;5.188;2023-11-19T05:58:24;24.6;;;6.5;;
68375;SDS011;55318;52.068;5.188;2023-11-19T06:00:01;24.8;;;7.2;;
68375;SDS011;55318;52.068;5.188;2023-11-19T06:01:38;26.4;;;6.5;;
68375;SDS011;55318;52.068;5.188;2023-11-19T06:04:50;21.4;;;5.3;;
68375;SDS011;55318;52.068;5.188;2023-11-19T06:06:26;26.0;;;7.1;;
68375;SDS011;55318;52.068;5.188;2023-11-19T06:08:05;22.6;;;5.6;;
68375;SDS011;55318;52.068;5.188;2023-11-19T06:09:41;21.8;;;5.8;;
68375;SDS011;55318;52.068;5.188;2023-11-19T06:12:53;33.6;;;7.3;;
68375;SDS011;55318;52.068;5.188;2023-11-19T06:14:29;29.1;;;6.4;;
68375;SDS011;55318;52.068;5.188;2023-11-19T06:16:06;25.2;;;6.9;;
68375;SDS011;55318;52.068;5.188;2023-11-19T06:19:19;22.7;;;5.5;;
68375;SDS011;55318;52.068;5.188;2023-11-19T06:20:55;18.11;;;5.4;;
68375;SDS011;55318;52.068;5.188;2023-11-19T06:22:31;31.0;;;6.6;;
68375;SDS011;55318;52.068;5.188;2023-11-19T06:25:44;29.6;;;6.9;;
68375;SDS011;55318;52.068;5.188;2023-11-19T06:27:21;26.4;;;7.3;;
68375;SDS011;55318;52.068;5.188;2023-11-19T06:28:56;32.9;;;7.2;;
68375;SDS011;55318;52.068;5.188;2023-11-19T06:30:32;31.8;;;6.2;;
68375;SDS011;55318;52.068;5.188;2023-11-19T06:33:46;31.0;;;8.2;;
68375;SDS011;55318;52.068;5.188;2023-11-19T06:35:22;28.2;;;6.3;;
68375;SDS011;55318;52.068;5.188;2023-11-19T06:36:58;28.1;;;7.2;;
68375;SDS011;55318;52.068;5.188;2023-11-19T06:40:10;23.3;;;5.0;;
68375;SDS011;55318;52.068;5.188;2023-11-19T06:41:47;25.2;;;6.4;;
68375;SDS011;55318;52.068;5.188;2023-11-19T06:43:23;26.7;;;7.4;;
68375;SDS011;55318;52.068;5.188;2023-11-19T06:46:37;34.4;;;7.6;;
68375;SDS011;55318;52.068;5.188;2023-11-19T06:48:14;29.2;;;6.0;;
68375;SDS011;55318;52.068;5.188;2023-11-19T06:49:50;22.3;;;6.0;;
68375;SDS011;55318;52.068;5.188;2023-11-19T06:51:26;24.6;;;6.9;;
68375;SDS011;55318;52.068;5.188;2023-11-19T06:54:39;23.2;;;5.11;;
68375;SDS011;55318;52.068;5.188;2023-11-19T06:56:18;23.8;;;5.8;;
68375;SDS011;55318;52.068;5.188;2023-11-19T06:57:56;27.5;;;6.3;;
68375;SDS011;55318;52.068;5.188;2023-11-19T07:01:13;27.3;;;6.0;;
68375;SDS011;55318;52.068;5.188;2023-11-19T07:02:49;25.2;;;5.7;;
68375;SDS011;55318;52.068;5.188;2023-11-19T07:04:25;34.1;;;7.3;;
68375;SDS011;55318;52.068;5.188;2023-11-19T07:06:02;21.3;;;6.2;;
68375;SDS011;55318;52.068;5.188;2023-11-19T07:09:15;24.9;;;6.9;;
68375;SDS011;55318;52.068;5.188;2023-11-19T07:10:51;25.8;;;6.6;;
68375;SDS011;55318;52.068;5.188;2023-11-19T07:12:28;24.5;;;5.3;;
68375;SDS011;55318;52.068;5.188;2023-11-19T07:15:42;31.7;;;6.6;;
68375;SDS011;55318;52.068;5.188;2023-11-19T07:17:18;28.0;;;6.7;;
68375;SDS011;55318;52.068;5.188;2023-11-19T07:18:55;26.6;;;6.2;;
68375;SDS011;55318;52.068;5.188;2023-11-19T07:22:08;26.6;;;7.0;;
68375;SDS011;55318;52.068;5.188;2023-11-19T07:23:44;18.91;;;5.11;;
68375;SDS011;55318;52.068;5.188;2023-11-19T07:25:21;28.6;;;6.8;;
68375;SDS011;55318;52.068;5.188;2023-11-19T07:26:57;17.7;;;4.8;;
68375;SDS011;55318;52.068;5.188;2023-11-19T07:30:10;24.0;;;5.5;;
68375;SDS011;55318;52.068;5.188;2023-11-19T07:31:48;23.6;;;5.0;;
68375;SDS011;55318;52.068;5.188;2023-11-19T07:33:24;24.1;;;6.7;;
68375;SDS011;55318;52.068;5.188;2023-11-19T07:36:36;23.2;;;6.5;;
68375;SDS011;55318;52.068;5.188;2023-11-19T07:38:13;21.0;;;4.91;;
68375;SDS011;55318;52.068;5.188;2023-11-19T07:39:49;31.8;;;7.7;;
68375;SDS011;55318;52.068;5.188;2023-11-19T07:43:01;26.3;;;6.0;;
68375;SDS011;55318;52.068;5.188;2023-11-19T07:44:37;20.8;;;5.5;;
68375;SDS011;55318;52.068;5.188;2023-11-19T07:46:13;27.8;;;7.2;;
68375;SDS011;55318;52.068;5.188;2023-11-19T07:49:27;28.5;;;7.9;;
68375;SDS011;55318;52.068;5.188;2023-11-19T07:51:03;20.2;;;5.6;;
68375;SDS011;55318;52.068;5.188;2023-11-19T07:52:39;20.5;;;5.7;;
68375;SDS011;55318;52.068;5.188;2023-11-19T07:54:15;24.8;;;5.3;;
68375;SDS011;55318;52.068;5.188;2023-11-19T07:57:28;23.4;;;6.6;;
68375;SDS011;55318;52.068;5.188;2023-11-19T07:59:04;22.1;;;6.4;;
68375;SDS011;55318;52.068;5.188;2023-11-19T08:00:40;24.0;;;5.7;;
68375;SDS011;55318;52.068;5.188;2023-11-19T08:03:53;21.6;;;5.11;;
68375;SDS011;55318;52.068;5.188;2023-11-19T08:05:30;23.6;;;7.1;;
68375;SDS011;55318;52.068;5.188;2023-11-19T08:07:07;22.7;;;5.5;;
68375;SDS011;55318;52.068;5.188;2023-11-19T08:10:20;24.8;;;6.3;;
68375;SDS011;55318;52.068;5.188;2023-11-19T08:11:57;24.2;;;5.9;;
68375;SDS011;55318;52.068;5.188;2023-11-19T08:13:33;25.8;;;5.7;;
68375;SDS011;55318;52.068;5.188;2023-11-19T08:15:10;23.0;;;6.0;;
68375;SDS011;55318;52.068;5.188;2023-11-19T08:18:23;27.2;;;6.1;;
68375;SDS011;55318;52.068;5.188;2023-11-19T08:19:59;18.7;;;5.11;;
68375;SDS011;55318;52.068;5.188;2023-11-19T08:21:35;29.5;;;7.0;;
68375;SDS011;55318;52.068;5.188;2023-11-19T08:24:48;35.21;;;7.0;;
68375;SDS011;55318;52.068;5.188;2023-11-19T08:26:24;22.6;;;5.6;;
68375;SDS011;55318;52.068;5.188;2023-11-19T08:28:00;33.6;;;6.5;;
68375;SDS011;55318;52.068;5.188;2023-11-19T08:31:13;28.3;;;7.4;;
68375;SDS011;55318;52.068;5.188;2023-11-19T08:32:49;23.8;;;6.7;;
68375;SDS011;55318;52.068;5.188;2023-11-19T08:34:25;23.2;;;5.4;;
68375;SDS011;55318;52.068;5.188;2023-11-19T08:36:03;27.9;;;7.8;;
68375;SDS011;55318;52.068;5.188;2023-11-19T08:39:15;23.1;;;5.7;;
68375;SDS011;55318;52.068;5.188;2023-11-19T08:40:51;27.3;;;6.5;;
68375;SDS011;55318;52.068;5.188;2023-11-19T08:42:27;22.9;;;6.2;;
68375;SDS011;55318;52.068;5.188;2023-11-19T08:45:40;26.3;;;6.0;;
68375;SDS011;55318;52.068;5.188;2023-11-19T08:47:16;21.5;;;4.7;;
68375;SDS011;55318;52.068;5.188;2023-11-19T08:48:53;26.3;;;5.8;;
68375;SDS011;55318;52.068;5.188;2023-11-19T08:52:08;21.6;;;6.0;;
68375;SDS011;55318;52.068;5.188;2023-11-19T08:53:45;21.6;;;5.2;;
68375;SDS011;55318;52.068;5.188;2023-11-19T08:55:21;24.7;;;6.8;;
68375;SDS011;55318;52.068;5.188;2023-11-19T08:56:57;21.2;;;5.8;;
68375;SDS011;55318;52.068;5.188;2023-11-19T09:00:10;23.8;;;7.4;;
68375;SDS011;55318;52.068;5.188;2023-11-19T09:01:48;27.8;;;7.0;;
68375;SDS011;55318;52.068;5.188;2023-11-19T09:03:25;25.0;;;6.4;;
68375;SDS011;55318;52.068;5.188;2023-11-19T09:06:38;24.7;;;5.5;;
68375;SDS011;55318;52.068;5.188;2023-11-19T09:08:15;15.7;;;4.5;;
68375;SDS011;55318;52.068;5.188;2023-11-19T09:09:52;20.2;;;5.7;;
68375;SDS011;55318;52.068;5.188;2023-11-19T09:14:41;23.2;;;6.9;;
68375;SDS011;55318;52.068;5.188;2023-11-19T09:16:17;21.1;;;5.11;;
68375;SDS011;55318;52.068;5.188;2023-11-19T09:17:54;27.8;;;6.0;;
68375;SDS011;55318;52.068;5.188;2023-11-19T09:21:10;16.0;;;5.0;;
68375;SDS011;55318;52.068;5.188;2023-11-19T09:22:46;23.8;;;5.8;;
68375;SDS011;55318;52.068;5.188;2023-11-19T09:24:22;22.8;;;6.2;;
68375;SDS011;55318;52.068;5.188;2023-11-19T09:27:34;28.5;;;6.6;;
68375;SDS011;55318;52.068;5.188;2023-11-19T09:29:11;13.4;;;4.61;;
68375;SDS011;55318;52.068;5.188;2023-11-19T09:30:49;24.7;;;5.7;;
68375;SDS011;55318;52.068;5.188;2023-11-19T09:34:03;26.7;;;5.4;;
68375;SDS011;55318;52.068;5.188;2023-11-19T09:35:39;19.5;;;5.6;;
68375;SDS011;55318;52.068;5.188;2023-11-19T09:37:15;24.8;;;5.2;;
68375;SDS011;55318;52.068;5.188;2023-11-19T09:38:51;19.5;;;4.1;;
68375;SDS011;55318;52.068;5.188;2023-11-19T09:42:04;21.0;;;4.5;;
68375;SDS011;55318;52.068;5.188;2023-11-19T09:43:41;22.1;;;5.2;;
68375;SDS011;55318;52.068;5.188;2023-11-19T09:45:19;22.8;;;6.7;;
68375;SDS011;55318;52.068;5.188;2023-11-19T09:48:35;23.6;;;5.7;;
68375;SDS011;55318;52.068;5.188;2023-11-19T09:50:14;16.9;;;5.6;;
68375;SDS011;55318;52.068;5.188;2023-11-19T09:51:52;25.0;;;6.0;;
68375;SDS011;55318;52.068;5.188;2023-11-19T09:53:30;21.0;;;5.7;;
68375;SDS011;55318;52.068;5.188;2023-11-19T09:56:44;13.8;;;4.8;;
68375;SDS011;55318;52.068;5.188;2023-11-19T09:58:22;22.9;;;5.7;;
68375;SDS011;55318;52.068;5.188;2023-11-19T09:59:58;21.6;;;5.2;;
68375;SDS011;55318;52.068;5.188;2023-11-19T10:03:13;31.1;;;6.3;;
68375;SDS011;55318;52.068;5.188;2023-11-19T10:04:49;20.7;;;5.11;;
68375;SDS011;55318;52.068;5.188;2023-11-19T10:06:27;23.6;;;6.1;;
68375;SDS011;55318;52.068;5.188;2023-11-19T10:08:05;23.6;;;6.1;;
68375;SDS011;55318;52.068;5.188;2023-11-19T10:11:18;24.8;;;5.2;;
68375;SDS011;55318;52.068;5.188;2023-11-19T10:12:54;24.8;;;5.2;;
68375;SDS011;55318;52.068;5.188;2023-11-19T10:14:30;22.6;;;5.9;;
68375;SDS011;55318;52.068;5.188;2023-11-19T10:17:48;24.1;;;5.8;;
68375;SDS011;55318;52.068;5.188;2023-11-19T10:19:24;20.0;;;5.9;;
68375;SDS011;55318;52.068;5.188;2023-11-19T10:21:00;25.8;;;6.1;;
68375;SDS011;55318;52.068;5.188;2023-11-19T10:24:13;22.5;;;5.9;;
68375;SDS011;55318;52.068;5.188;2023-11-19T10:25:50;20.2;;;6.0;;
68375;SDS011;55318;52.068;5.188;2023-11-19T10:27:29;22.8;;;5.3;;
68375;SDS011;55318;52.068;5.188;2023-11-19T10:29:06;22.0;;;5.7;;
68375;SDS011;55318;52.068;5.188;2023-11-19T10:32:18;25.9;;;5.5;;
68375;SDS011;55318;52.068;5.188;2023-11-19T10:33:54;17.3;;;4.2;;
68375;SDS011;55318;52.068;5.188;2023-11-19T10:35:31;22.9;;;6.0;;
68375;SDS011;55318;52.068;5.188;2023-11-19T10:39:03;16.61;;;4.61;;
68375;SDS011;55318;52.068;5.188;2023-11-19T10:40:39;20.41;;;4.61;;
68375;SDS011;55318;52.068;5.188;2023-11-19T10:42:16;21.7;;;4.8;;
68375;SDS011;55318;52.068;5.188;2023-11-19T10:43:52;23.3;;;6.4;;
68375;SDS011;55318;52.068;5.188;2023-11-19T10:47:05;18.8;;;4.41;;
68375;SDS011;55318;52.068;5.188;2023-11-19T10:48:43;20.7;;;6.0;;
68375;SDS011;55318;52.068;5.188;2023-11-19T10:50:19;18.2;;;5.11;;
68375;SDS011;55318;52.068;5.188;2023-11-19T10:53:35;19.91;;;5.9;;
68375;SDS011;55318;52.068;5.188;2023-11-19T10:55:13;24.1;;;5.0;;
68375;SDS011;55318;52.068;5.188;2023-11-19T10:56:54;23.5;;;5.2;;
68375;SDS011;55318;52.068;5.188;2023-11-19T10:58:35;16.9;;;5.11;;
68375;SDS011;55318;52.068;5.188;2023-11-19T11:01:54;17.5;;;5.11;;
68375;SDS011;55318;52.068;5.188;2023-11-19T11:03:35;23.4;;;4.8;;
68375;SDS011;55318;52.068;5.188;2023-11-19T11:05:16;19.61;;;4.5;;
68375;SDS011;55318;52.068;5.188;2023-11-19T11:06:54;17.8;;;4.61;;
68375;SDS011;55318;52.068;5.188;2023-11-19T11:10:12;20.7;;;5.7;;
68375;SDS011;55318;52.068;5.188;2023-11-19T11:11:49;20.0;;;5.4;;
68375;SDS011;55318;52.068;5.188;2023-11-19T11:15:03;20.2;;;5.5;;
68375;SDS011;55318;52.068;5.188;2023-11-19T11:18:20;24.5;;;6.1;;
68375;SDS011;55318;52.068;5.188;2023-11-19T11:19:56;22.6;;;5.7;;
68375;SDS011;55318;52.068;5.188;2023-11-19T11:21:33;21.3;;;5.7;;
68375;SDS011;55318;52.068;5.188;2023-11-19T11:25:27;18.8;;;4.41;;
68375;SDS011;55318;52.068;5.188;2023-11-19T11:27:21;20.5;;;5.2;;
68375;SDS011;55318;52.068;5.188;2023-11-19T11:29:21;18.8;;;5.3;;
68375;SDS011;55318;52.068;5.188;2023-11-19T11:31:08;24.0;;;5.3;;
68375;SDS011;55318;52.068;5.188;2023-11-19T11:33:00;21.3;;;5.4;;
68375;SDS011;55318;52.068;5.188;2023-11-19T11:34:53;25.5;;;6.3;;
68375;SDS011;55318;52.068;5.188;2023-11-19T11:36:45;21.9;;;5.5;;
68375;SDS011;55318;52.068;5.188;2023-11-19T11:38:42;20.8;;;5.7;;
68375;SDS011;55318;52.068;5.188;2023-11-19T11:40:19;23.1;;;4.7;;
68375;SDS011;55318;52.068;5.188;2023-11-19T11:44:10;13.8;;;4.2;;
68375;SDS011;55318;52.068;5.188;2023-11-19T11:45:46;18.5;;;4.5;;
68375;SDS011;55318;52.068;5.188;2023-11-19T11:47:23;20.9;;;5.9;;
68375;SDS011;55318;52.068;5.188;2023-11-19T11:48:59;16.0;;;4.8;;
68375;SDS011;55318;52.068;5.188;2023-11-19T11:50:49;21.7;;;5.4;;
68375;SDS011;55318;52.068;5.188;2023-11-19T11:54:05;13.9;;;4.3;;
68375;SDS011;55318;52.068;5.188;2023-11-19T11:55:57;17.11;;;5.0;;
68375;SDS011;55318;52.068;5.188;2023-11-19T11:57:40;23.3;;;5.7;;
68375;SDS011;55318;52.068;5.188;2023-11-19T11:59:18;14.7;;;4.3;;
68375;SDS011;55318;52.068;5.188;2023-11-19T12:02:33;17.41;;;5.0;;
68375;SDS011;55318;52.068;5.188;2023-11-19T12:04:09;13.1;;;4.1;;
68375;SDS011;55318;52.068;5.188;2023-11-19T12:05:47;10.7;;;4.0;;
68375;SDS011;55318;52.068;5.188;2023-11-19T12:07:24;22.6;;;4.7;;
68375;SDS011;55318;52.068;5.188;2023-11-19T12:10:44;16.4;;;4.61;;
68375;SDS011;55318;52.068;5.188;2023-11-19T12:12:21;14.1;;;4.2;;
68375;SDS011;55318;52.068;5.188;2023-11-19T12:14:02;19.11;;;5.2;;
68375;SDS011;55318;52.068;5.188;2023-11-19T12:16:07;16.7;;;4.61;;
68375;SDS011;55318;52.068;5.188;2023-11-19T12:17:46;17.2;;;4.1;;
68375;SDS011;55318;52.068;5.188;2023-11-19T12:21:01;18.0;;;4.8;;
68375;SDS011;55318;52.068;5.188;2023-11-19T12:22:39;14.1;;;4.1;;
68375;SDS011;55318;52.068;5.188;2023-11-19T12:24:17;18.5;;;4.2;;
68375;SDS011;55318;52.068;5.188;2023-11-19T12:27:31;19.0;;;4.3;;
68375;SDS011;55318;52.068;5.188;2023-11-19T12:29:08;17.91;;;4.0;;
68375;SDS011;55318;52.068;5.188;2023-11-19T12:30:44;22.0;;;5.5;;
68375;SDS011;55318;52.068;5.188;2023-11-19T12:33:57;17.61;;;5.11;;
68375;SDS011;55318;52.068;5.188;2023-11-19T12:35:33;13.0;;;3.8;;
68375;SDS011;55318;52.068;5.188;2023-11-19T12:37:15;23.2;;;5.2;;
68375;SDS011;55318;52.068;5.188;2023-11-19T12:38:53;16.11;;;4.5;;
68375;SDS011;55318;52.068;5.188;2023-11-19T12:42:06;15.5;;;4.0;;
68375;SDS011;55318;52.068;5.188;2023-11-19T12:43:42;18.91;;;6.4;;
68375;SDS011;55318;52.068;5.188;2023-11-19T12:45:19;19.0;;;4.1;;
68375;SDS011;55318;52.068;5.188;2023-11-19T12:48:36;19.7;;;5.11;;
68375;SDS011;55318;52.068;5.188;2023-11-19T12:50:13;14.1;;;5.11;;
68375;SDS011;55318;52.068;5.188;2023-11-19T12:51:50;22.1;;;5.0;;